Time;durP1;ratioP1;P1;durP2;ratioP2;P2;SDS_P1;SDS_P2;PMS_P1;PMS_P2;Temp;Humidity;BMP_temperature;BMP_pressure;BME280_temperature;BME280_humidity;BME280_pressure;Samples;Min_cycle;Max_cycle;Signal;HPM_P1;HPM_P2
2023/05/31 00:00:39;;;;;;;16.60;9.23;;;;;;;15.81;64.61;100777.41;5053508;28;20044;-76
2023/05/31 00:03:06;;;;;;;21.10;9.97;;;;;;;15.81;64.91;100777.41;5053018;28;20028;-76
2023/05/31 00:05:31;;;;;;;18.58;9.95;;;;;;;15.89;64.58;100768.59;5053702;28;20029;-76
2023/05/31 00:07:57;;;;;;;17.13;8.17;;;;;;;15.76;64.95;100770.78;5052650;28;20043;-77
2023/05/31 00:10:22;;;;;;;17.47;9.00;;;;;;;15.65;65.41;100774.66;5053274;28;20342;-76
2023/05/31 00:12:47;;;;;;;17.87;9.30;;;;;;;15.64;65.39;100770.28;5053525;28;20033;-77
2023/05/31 00:15:12;;;;;;;18.67;8.13;;;;;;;15.76;65.25;100764.50;5052896;28;20269;-76
2023/05/31 00:17:38;;;;;;;16.97;9.17;;;;;;;15.72;65.22;100777.94;5053568;28;20024;-76
2023/05/31 00:20:03;;;;;;;23.37;9.10;;;;;;;15.78;64.89;100767.78;5052424;28;20039;-77
2023/05/31 00:22:28;;;;;;;17.70;8.60;;;;;;;15.75;64.79;100771.91;5053548;28;20478;-77
2023/05/31 00:24:55;;;;;;;23.50;10.80;;;;;;;15.64;65.33;100762.03;5052988;28;20447;-76
2023/05/31 00:27:20;;;;;;;22.15;8.65;;;;;;;15.67;65.30;100761.47;5052984;28;20043;-76
2023/05/31 00:29:45;;;;;;;19.90;9.27;;;;;;;15.61;65.36;100768.88;5052565;28;20524;-76
2023/05/31 00:32:10;;;;;;;15.30;9.07;;;;;;;15.74;65.22;100764.75;5052309;28;20260;-77
2023/05/31 00:34:36;;;;;;;14.90;8.43;;;;;;;15.68;65.14;100773.28;5052822;28;20029;-76
2023/05/31 00:37:01;;;;;;;14.52;8.20;;;;;;;15.64;65.38;100770.28;5051849;28;20294;-76
2023/05/31 00:39:27;;;;;;;19.38;8.50;;;;;;;15.57;65.83;100762.28;5052441;28;20037;-75
2023/05/31 00:41:52;;;;;;;16.67;8.15;;;;;;;15.58;65.50;100768.63;5052958;28;20044;-76
2023/05/31 00:44:17;;;;;;;24.10;10.63;;;;;;;15.68;65.09;100768.59;5053016;28;20434;-76
2023/05/31 00:46:43;;;;;;;25.40;9.48;;;;;;;15.65;65.32;100774.66;5053022;28;20281;-76
2023/05/31 00:49:08;;;;;;;19.13;9.20;;;;;;;15.45;65.89;100765.31;5050901;28;20047;-76
2023/05/31 00:51:36;;;;;;;20.30;7.68;;;;;;;15.35;66.16;100766.13;5053007;28;20040;-77
2023/05/31 00:54:01;;;;;;;19.63;9.43;;;;;;;15.31;66.52;100770.50;5052985;28;20029;-76
2023/05/31 00:56:27;;;;;;;19.42;10.02;;;;;;;15.33;66.48;100779.31;5052780;28;20039;-76
2023/05/31 00:58:55;;;;;;;19.10;9.27;;;;;;;15.22;66.84;100778.44;5052515;28;20032;-77
2023/05/31 01:01:22;;;;;;;14.52;8.60;;;;;;;15.18;67.32;100777.34;5052892;28;20086;-75
2023/05/31 01:03:47;;;;;;;17.05;9.98;;;;;;;15.25;66.94;100775.19;5052440;28;20029;-76
2023/05/31 01:06:12;;;;;;;18.23;8.60;;;;;;;15.28;66.78;100782.03;5052754;28;20082;-76
2023/05/31 01:08:39;;;;;;;18.23;9.53;;;;;;;15.24;66.26;100773.50;5052278;28;20063;-77
2023/05/31 01:11:16;;;;;;;22.23;12.88;;;;;;;15.04;67.22;100786.09;5052528;28;20603;-76
2023/05/31 01:14:07;;;;;;;19.70;11.48;;;;;;;14.91;67.78;100776.44;5053191;28;20060;-77
2023/05/31 01:16:39;;;;;;;22.98;11.65;;;;;;;14.87;68.36;100777.28;5052974;28;20051;-77
2023/05/31 01:19:07;;;;;;;18.42;9.73;;;;;;;14.82;67.99;100764.31;5052121;28;20058;-76
2023/05/31 01:22:14;;;;;;;25.40;10.52;;;;;;;14.80;67.90;100775.56;5052455;28;20057;-76
2023/05/31 01:24:52;;;;;;;20.02;11.20;;;;;;;14.70;68.56;100778.28;5048725;28;20072;-76
2023/05/31 01:27:19;;;;;;;18.17;10.57;;;;;;;14.73;68.14;100766.75;5052661;28;20033;-76
2023/05/31 01:29:45;;;;;;;19.02;10.10;;;;;;;14.65;68.99;100764.50;5051754;28;20130;-76
2023/05/31 01:32:13;;;;;;;18.70;9.00;;;;;;;14.63;69.01;100770.28;5052185;28;20032;-76
2023/05/31 01:34:38;;;;;;;20.35;10.25;;;;;;;14.57;68.86;100769.44;5052574;28;20147;-76
2023/05/31 01:37:04;;;;;;;18.43;10.27;;;;;;;14.47;69.33;100770.22;5051020;28;20644;-76
2023/05/31 01:39:29;;;;;;;20.33;9.95;;;;;;;14.42;68.88;100772.09;5051642;28;20273;-76
2023/05/31 01:41:55;;;;;;;24.48;11.00;;;;;;;14.41;69.16;100764.94;5052225;28;20032;-76
2023/05/31 01:44:21;;;;;;;22.52;11.65;;;;;;;14.42;69.21;100770.16;5053506;28;20112;-76
2023/05/31 01:46:48;;;;;;;20.83;11.80;;;;;;;14.29;69.92;100776.13;5056185;28;20112;-76
2023/05/31 01:49:14;;;;;;;25.65;13.38;;;;;;;14.35;69.80;100770.41;5055366;28;20118;-76
2023/05/31 01:51:41;;;;;;;21.92;13.18;;;;;;;14.31;69.66;100776.69;5056159;28;20052;-76
2023/05/31 01:54:07;;;;;;;22.08;12.13;;;;;;;14.26;70.30;100774.75;5055820;28;20031;-76
2023/05/31 01:56:32;;;;;;;22.42;11.65;;;;;;;14.26;70.23;100780.22;5055832;28;20689;-76
2023/05/31 01:58:59;;;;;;;25.75;13.40;;;;;;;14.31;70.38;100774.78;5055502;28;20090;-76
2023/05/31 02:01:25;;;;;;;18.98;11.27;;;;;;;14.21;70.15;100771.97;5055388;28;20029;-75
2023/05/31 02:03:51;;;;;;;21.00;12.15;;;;;;;14.31;69.58;100777.53;5055875;28;20037;-76
2023/05/31 02:06:16;;;;;;;19.63;11.98;;;;;;;14.26;69.80;100780.22;5055523;28;20178;-76
2023/05/31 02:08:42;;;;;;;31.65;13.90;;;;;;;14.24;69.49;100776.91;5055096;28;20215;-76
2023/05/31 02:11:07;;;;;;;19.92;11.45;;;;;;;14.08;70.01;100776.81;5055709;28;20032;-76
2023/05/31 02:13:33;;;;;;;31.92;13.82;;;;;;;14.10;70.54;100774.66;5055645;28;20036;-76
2023/05/31 02:15:59;;;;;;;27.58;15.02;;;;;;;14.16;70.52;100774.66;5055508;28;20123;-77
2023/05/31 02:18:27;;;;;;;18.50;10.48;;;;;;;14.09;70.84;100773.00;5054833;28;20037;-77
2023/05/31 02:20:53;;;;;;;24.10;12.15;;;;;;;14.10;70.25;100777.38;5055072;28;20652;-76
2023/05/31 02:23:19;;;;;;;19.58;10.75;;;;;;;14.10;70.11;100780.13;5055386;28;20123;-76
2023/05/31 02:25:46;;;;;;;17.08;10.48;;;;;;;14.07;70.03;100777.94;5055247;28;20047;-76
2023/05/31 02:28:11;;;;;;;20.73;12.15;;;;;;;14.04;69.99;100774.88;5054929;28;20058;-76
2023/05/31 02:30:38;;;;;;;20.70;10.38;;;;;;;13.92;70.58;100775.06;5053962;28;20032;-76
2023/05/31 02:33:03;;;;;;;18.45;11.40;;;;;;;13.85;70.47;100781.59;5056891;28;20086;-76
2023/05/31 02:35:28;;;;;;;22.63;12.95;;;;;;;13.92;70.24;100780.53;5055414;28;20036;-76
2023/05/31 02:37:53;;;;;;;23.25;11.75;;;;;;;13.71;70.85;100783.13;5054570;28;20047;-76
2023/05/31 02:40:19;;;;;;;19.37;11.13;;;;;;;13.80;70.50;100781.56;5055054;28;20412;-76
2023/05/31 02:42:44;;;;;;;23.67;10.83;;;;;;;13.76;70.93;100777.69;5054982;28;20290;-76
2023/05/31 02:45:10;;;;;;;25.00;12.38;;;;;;;13.76;71.24;100780.44;5055020;28;20752;-76
2023/05/31 02:47:37;;;;;;;21.58;12.00;;;;;;;13.72;70.68;100780.13;5053769;28;20061;-76
2023/05/31 02:50:10;;;;;;;22.35;11.85;;;;;;;13.59;70.89;100784.13;5054269;28;20155;-76
2023/05/31 02:52:36;;;;;;;24.10;12.13;;;;;;;13.56;70.78;100779.16;5055126;28;20119;-77
2023/05/31 02:55:02;;;;;;;23.13;11.25;;;;;;;13.59;71.16;100777.81;5054378;28;20776;-77
2023/05/31 02:57:28;;;;;;;21.17;11.52;;;;;;;13.59;71.36;100784.13;5054551;28;20089;-76
2023/05/31 02:59:58;;;;;;;21.53;12.80;;;;;;;13.58;71.24;100782.47;5053910;28;20109;-77
2023/05/31 03:02:24;;;;;;;21.75;11.18;;;;;;;13.50;71.98;100780.19;5054213;28;20277;-76
2023/05/31 03:04:50;;;;;;;30.75;15.15;;;;;;;13.47;72.06;100783.41;5054803;28;20025;-76
2023/05/31 03:07:15;;;;;;;19.73;11.63;;;;;;;13.47;71.46;100776.03;5054514;28;20069;-76
2023/05/31 03:09:40;;;;;;;20.80;10.80;;;;;;;13.49;71.76;100778.50;5054049;28;20032;-76
2023/05/31 03:12:06;;;;;;;28.73;14.40;;;;;;;13.54;71.49;100775.88;5054351;28;20105;-77
2023/05/31 03:14:32;;;;;;;22.60;12.57;;;;;;;13.55;71.08;100777.50;5054841;28;20265;-76
2023/05/31 03:16:57;;;;;;;20.38;11.05;;;;;;;13.56;71.33;100778.34;5054660;28;20435;-77
2023/05/31 03:19:22;;;;;;;24.50;12.70;;;;;;;13.46;72.13;100774.41;5054114;28;20692;-77
2023/05/31 03:21:48;;;;;;;22.55;13.00;;;;;;;13.51;71.20;100773.59;5054359;28;20281;-77
2023/05/31 03:24:13;;;;;;;29.48;15.13;;;;;;;13.34;72.20;100771.00;5054402;28;20043;-76
2023/05/31 03:26:38;;;;;;;20.60;11.40;;;;;;;13.37;72.69;100774.03;5054233;28;20124;-76
2023/05/31 03:29:03;;;;;;;21.27;10.73;;;;;;;13.41;71.92;100766.94;5053672;28;20282;-76
2023/05/31 03:31:29;;;;;;;29.20;12.93;;;;;;;13.42;72.10;100754.91;5054256;28;20260;-76
2023/05/31 03:33:54;;;;;;;21.38;13.07;;;;;;;13.45;72.36;100759.03;5053857;28;20051;-76
2023/05/31 03:36:20;;;;;;;20.60;11.88;;;;;;;13.55;72.77;100755.59;5053884;28;21214;-77
2023/05/31 03:38:45;;;;;;;21.67;11.67;;;;;;;13.76;72.20;100755.75;5053243;28;20505;-77
2023/05/31 03:41:10;;;;;;;22.57;13.17;;;;;;;13.85;71.80;100753.38;5053933;28;20264;-76
2023/05/31 03:43:36;;;;;;;46.77;12.03;;;;;;;13.91;71.73;100751.50;5054150;28;20272;-76
2023/05/31 03:46:01;;;;;;;18.75;11.07;;;;;;;13.92;71.33;100750.38;5053828;28;20402;-76
2023/05/31 03:48:27;;;;;;;17.25;11.30;;;;;;;13.88;71.91;100753.66;5053319;28;20138;-76
2023/05/31 03:50:53;;;;;;;21.25;12.00;;;;;;;13.89;71.64;100755.31;5053586;28;20115;-78
2023/05/31 03:53:18;;;;;;;20.43;10.93;;;;;;;14.05;71.37;100754.59;5054090;28;20119;-76
2023/05/31 03:55:43;;;;;;;18.85;10.73;;;;;;;14.09;70.90;100759.31;5053618;28;20739;-77
2023/05/31 03:58:10;;;;;;;20.08;13.02;;;;;;;14.02;71.24;100766.91;5052852;28;20615;-76
2023/05/31 04:00:36;;;;;;;20.52;11.23;;;;;;;14.07;70.90;100766.13;5054001;28;20448;-76
2023/05/31 04:03:01;;;;;;;24.52;11.90;;;;;;;14.09;71.25;100764.78;5053558;28;20025;-76
2023/05/31 04:05:26;;;;;;;23.42;11.73;;;;;;;14.07;71.11;100777.09;5053394;28;20107;-76
2023/05/31 04:07:51;;;;;;;20.63;10.67;;;;;;;14.10;71.00;100768.34;5053103;28;20106;-76
2023/05/31 04:10:17;;;;;;;23.97;12.67;;;;;;;14.14;71.29;100772.19;5053251;28;20300;-77
2023/05/31 04:12:42;;;;;;;22.73;13.03;;;;;;;14.18;70.96;100761.53;5053580;28;20285;-76
2023/05/31 04:15:07;;;;;;;23.00;11.83;;;;;;;14.16;71.09;100759.06;5053453;28;20262;-76
2023/05/31 04:17:33;;;;;;;22.13;11.93;;;;;;;14.22;71.08;100760.72;5053432;28;20837;-76
2023/05/31 04:19:58;;;;;;;23.27;12.30;;;;;;;14.29;70.96;100762.41;5052608;28;20383;-77
2023/05/31 04:22:23;;;;;;;23.17;12.43;;;;;;;14.28;70.70;100760.78;5053301;28;20300;-76
2023/05/31 04:24:49;;;;;;;17.98;10.23;;;;;;;14.33;71.05;100749.81;5052872;28;20257;-76
2023/05/31 04:27:18;;;;;;;22.85;10.60;;;;;;;14.24;70.87;100750.31;5052889;28;20107;-76
2023/05/31 04:29:45;;;;;;;24.38;12.20;;;;;;;14.27;71.44;100759.94;5052576;28;20106;-76
2023/05/31 04:32:14;;;;;;;25.90;11.07;;;;;;;14.32;71.42;100762.72;5053106;28;20044;-76
2023/05/31 04:34:40;;;;;;;21.55;11.50;;;;;;;14.39;70.84;100764.38;5052802;28;20068;-76
2023/05/31 04:37:05;;;;;;;17.83;11.55;;;;;;;14.51;70.42;100764.19;5052925;28;20110;-76
2023/05/31 04:39:31;;;;;;;20.92;11.00;;;;;;;14.56;70.01;100766.97;5052602;28;20036;-76
2023/05/31 04:41:56;;;;;;;24.10;12.20;;;;;;;14.52;70.47;100760.34;5052542;28;20048;-76
2023/05/31 04:44:21;;;;;;;23.38;12.57;;;;;;;14.56;70.75;100755.97;5053524;28;20044;-76
2023/05/31 04:46:46;;;;;;;27.27;12.97;;;;;;;14.64;70.29;100762.88;5053129;28;20529;-76
2023/05/31 04:49:12;;;;;;;20.33;11.30;;;;;;;14.70;69.89;100765.38;5052471;28;20290;-76
2023/05/31 04:51:37;;;;;;;26.10;12.90;;;;;;;14.81;69.04;100762.66;5052680;28;20310;-76
2023/05/31 04:54:03;;;;;;;22.87;12.77;;;;;;;14.77;69.23;100759.63;5052957;28;20394;-76
2023/05/31 04:56:28;;;;;;;24.00;13.15;;;;;;;14.88;69.15;100765.19;5053015;28;20250;-76
2023/05/31 04:58:53;;;;;;;28.98;13.43;;;;;;;14.86;68.71;100757.22;5052223;28;20572;-76
2023/05/31 05:01:19;;;;;;;21.30;12.97;;;;;;;14.75;69.49;100755.47;5052810;28;20052;-76
2023/05/31 05:03:44;;;;;;;25.25;12.85;;;;;;;14.72;69.90;100759.63;5052630;28;21140;-76
2023/05/31 05:06:15;;;;;;;26.00;12.27;;;;;;;14.74;70.21;100760.19;5052933;28;20033;-76
2023/05/31 05:08:41;;;;;;;24.13;13.20;;;;;;;14.82;69.78;100759.66;5052655;28;20076;-76
2023/05/31 05:11:06;;;;;;;24.52;11.48;;;;;;;14.91;69.35;100759.13;5051295;28;20060;-76
2023/05/31 05:13:32;;;;;;;27.27;12.40;;;;;;;14.85;70.00;100771.22;5053130;28;20802;-76
2023/05/31 05:15:57;;;;;;;22.67;11.60;;;;;;;14.82;70.07;100772.53;5052425;28;20274;-76
2023/05/31 05:18:22;;;;;;;25.07;12.40;;;;;;;14.87;69.87;100771.78;5052054;28;21175;-76
2023/05/31 05:20:47;;;;;;;22.67;11.73;;;;;;;14.97;69.47;100774.53;5055235;28;20293;-77
2023/05/31 05:23:13;;;;;;;23.23;10.80;;;;;;;14.96;69.97;100775.66;5055237;28;20263;-76
2023/05/31 05:25:38;;;;;;;23.42;12.15;;;;;;;15.03;69.64;100769.91;5055161;28;20253;-76
2023/05/31 05:28:03;;;;;;;25.90;13.47;;;;;;;15.02;69.56;100774.56;5055597;28;20054;-76
2023/05/31 05:30:29;;;;;;;22.17;11.43;;;;;;;14.94;70.25;100780.56;5056345;28;20380;-76
2023/05/31 05:32:54;;;;;;;19.45;11.38;;;;;;;15.00;69.81;100776.75;5056345;28;20028;-76
2023/05/31 05:35:19;;;;;;;21.45;12.90;;;;;;;15.00;69.99;100782.25;5055960;28;20041;-76
2023/05/31 05:37:45;;;;;;;19.25;10.70;;;;;;;15.12;69.87;100779.25;5055844;28;20086;-76
2023/05/31 05:40:11;;;;;;;21.37;11.83;;;;;;;14.96;70.59;100770.16;5054784;28;20113;-76
2023/05/31 05:42:37;;;;;;;19.48;8.95;;;;;;;15.02;70.17;100774.56;5056247;28;20285;-78
2023/05/31 05:45:07;;;;;;;22.77;11.25;;;;;;;15.00;70.55;100771.25;5056100;28;20076;-76
2023/05/31 05:47:33;;;;;;;13.75;8.32;;;;;;;15.16;69.64;100774.88;5056593;28;20048;-77
2023/05/31 05:49:58;;;;;;;19.27;9.02;;;;;;;15.21;69.75;100773.25;5055520;28;20037;-76
2023/05/31 05:52:23;;;;;;;20.63;9.50;;;;;;;15.18;69.80;100771.84;5055828;28;20124;-77
2023/05/31 05:54:48;;;;;;;17.97;10.70;;;;;;;15.23;69.65;100773.78;5054850;28;20658;-77
2023/05/31 05:57:14;;;;;;;16.17;9.47;;;;;;;15.39;69.07;100778.22;5055824;28;20277;-76
2023/05/31 05:59:41;;;;;;;21.10;10.73;;;;;;;15.23;69.60;100774.63;5055457;28;20043;-77
2023/05/31 06:02:06;;;;;;;26.73;13.13;;;;;;;15.41;69.46;100775.19;5055705;28;20249;-77
2023/05/31 06:04:31;;;;;;;36.07;12.10;;;;;;;15.58;68.71;100774.13;5055859;28;20098;-76
2023/05/31 06:06:57;;;;;;;20.30;13.03;;;;;;;15.52;68.63;100776.84;5055726;28;20285;-76
2023/05/31 06:09:22;;;;;;;22.67;11.63;;;;;;;15.53;68.81;100772.19;5054900;28;20300;-77
2023/05/31 06:11:47;;;;;;;17.75;9.88;;;;;;;15.47;69.56;100782.34;5055774;28;20430;-77
2023/05/31 06:14:13;;;;;;;24.10;11.53;;;;;;;15.49;70.19;100782.91;5055689;28;20044;-78
2023/05/31 06:16:38;;;;;;;21.08;10.75;;;;;;;15.57;69.46;100777.94;5055853;28;20288;-76
2023/05/31 06:19:03;;;;;;;21.30;9.07;;;;;;;15.57;68.46;100787.03;5053578;28;20033;-77
2023/05/31 06:21:28;;;;;;;19.13;9.43;;;;;;;15.67;68.43;100788.94;5055737;28;20309;-76
2023/05/31 06:23:54;;;;;;;23.08;9.95;;;;;;;15.71;68.51;100790.06;5055480;28;20032;-77
2023/05/31 06:26:19;;;;;;;22.42;10.90;;;;;;;15.78;67.75;100792.53;5055123;28;20475;-75
2023/05/31 06:28:45;;;;;;;18.63;9.07;;;;;;;15.84;67.72;100793.34;5053990;28;20037;-76
2023/05/31 06:31:10;;;;;;;22.48;9.30;;;;;;;15.90;67.65;100796.94;5053815;28;20071;-79
2023/05/31 06:33:35;;;;;;;19.20;10.88;;;;;;;15.98;67.34;100788.97;5055339;28;20110;-76
2023/05/31 06:36:01;;;;;;;19.57;8.73;;;;;;;15.97;67.09;100787.28;5053725;28;20037;-76
2023/05/31 06:38:26;;;;;;;14.73;8.80;;;;;;;15.96;67.54;100796.66;5055071;28;20380;-78
2023/05/31 06:40:52;;;;;;;18.43;9.70;;;;;;;15.98;67.54;100785.38;5055378;28;20100;-75
2023/05/31 06:43:17;;;;;;;16.48;9.43;;;;;;;16.04;67.17;100783.47;5054801;28;20040;-76
2023/05/31 06:45:42;;;;;;;17.52;9.73;;;;;;;16.13;66.87;100779.03;5054531;28;20078;-76
2023/05/31 06:48:11;;;;;;;21.65;8.77;;;;;;;16.16;66.72;100783.16;5054712;28;20028;-76
2023/05/31 06:50:36;;;;;;;21.33;9.38;;;;;;;16.24;66.25;100779.84;5055401;28;20051;-77
2023/05/31 06:53:01;;;;;;;20.33;11.15;;;;;;;16.29;66.38;100781.78;5055900;28;20719;-76
2023/05/31 06:55:27;;;;;;;17.33;8.27;;;;;;;16.32;66.72;100771.03;5055168;28;20391;-76
2023/05/31 06:57:52;;;;;;;15.63;8.80;;;;;;;16.28;67.11;100772.69;5055081;28;21295;-77
2023/05/31 07:00:18;;;;;;;16.93;9.50;;;;;;;16.30;66.69;100783.41;5054992;28;20393;-76
2023/05/31 07:02:43;;;;;;;15.77;7.80;;;;;;;16.31;67.67;100774.06;5055101;28;20086;-76
2023/05/31 07:05:09;;;;;;;16.50;8.50;;;;;;;16.42;66.47;100774.84;5054906;28;20440;-76
2023/05/31 07:07:34;;;;;;;17.87;7.77;;;;;;;16.45;66.65;100769.59;5053290;28;20071;-76
2023/05/31 07:10:00;;;;;;;12.83;7.27;;;;;;;16.54;66.22;100777.28;5051963;28;20288;-76
2023/05/31 07:12:26;;;;;;;19.55;8.73;;;;;;;16.53;66.18;100770.16;5053606;28;20032;-76
2023/05/31 07:14:51;;;;;;;12.20;6.22;;;;;;;16.62;65.53;100773.16;5053497;28;20493;-76
2023/05/31 07:17:16;;;;;;;13.70;7.00;;;;;;;16.72;65.37;100762.06;5053596;28;20083;-76
2023/05/31 07:19:46;;;;;;;16.37;7.90;;;;;;;16.64;65.78;100762.66;5053785;28;20240;-76
2023/05/31 07:22:14;;;;;;;17.83;8.23;;;;;;;16.63;65.33;100764.59;5054099;28;20377;-76
2023/05/31 07:24:39;;;;;;;20.25;7.75;;;;;;;16.69;65.59;100765.41;5054506;28;20309;-76
2023/05/31 07:27:05;;;;;;;16.10;8.07;;;;;;;16.78;64.94;100768.41;5054876;28;20033;-76
2023/05/31 07:29:30;;;;;;;16.65;8.48;;;;;;;16.83;64.79;100762.88;5054079;28;20095;-76
2023/05/31 07:31:56;;;;;;;11.45;7.03;;;;;;;16.80;65.33;100768.94;5054254;28;21113;-76
2023/05/31 07:34:21;;;;;;;16.37;8.27;;;;;;;16.81;64.83;100765.06;5054374;28;20060;-76
2023/05/31 07:36:47;;;;;;;16.33;7.70;;;;;;;16.85;64.69;100757.91;5054376;28;20047;-76
2023/05/31 07:39:12;;;;;;;18.50;7.45;;;;;;;16.96;65.51;100766.09;5054113;28;20660;-76
2023/05/31 07:41:38;;;;;;;16.20;7.97;;;;;;;17.06;64.48;100762.47;5054315;28;20039;-76
2023/05/31 07:44:03;;;;;;;15.02;6.65;;;;;;;17.09;64.34;100765.47;5054641;28;20257;-76
2023/05/31 07:46:28;;;;;;;11.40;6.40;;;;;;;17.04;64.02;100757.25;5054514;28;20064;-76
2023/05/31 07:48:54;;;;;;;16.58;7.95;;;;;;;17.12;63.98;100764.09;5053908;28;20731;-78
2023/05/31 07:51:19;;;;;;;16.95;7.63;;;;;;;17.19;64.15;100763.81;5054198;28;20024;-76
2023/05/31 07:53:45;;;;;;;13.93;6.72;;;;;;;17.24;63.78;100761.84;5054344;28;20037;-77
2023/05/31 07:56:10;;;;;;;13.93;7.63;;;;;;;17.33;63.01;100753.78;5054255;28;20086;-76
2023/05/31 07:58:36;;;;;;;13.52;6.95;;;;;;;17.36;63.63;100758.72;5053953;28;20040;-76
2023/05/31 08:01:02;;;;;;;11.85;6.03;;;;;;;17.47;63.81;100758.66;5054359;28;20630;-76
2023/05/31 08:03:27;;;;;;;14.52;6.05;;;;;;;17.55;63.05;100760.81;5054156;28;20033;-76
2023/05/31 08:05:52;;;;;;;13.40;7.38;;;;;;;17.65;62.53;100759.06;5054296;28;20040;-77
2023/05/31 08:08:18;;;;;;;16.83;6.93;;;;;;;17.69;62.27;100760.13;5053690;28;20036;-76
2023/05/31 08:10:43;;;;;;;14.55;7.57;;;;;;;17.69;62.24;100749.94;5053796;28;20775;-76
2023/05/31 08:13:09;;;;;;;19.35;7.47;;;;;;;17.76;62.47;100749.56;5053849;28;20865;-76
2023/05/31 08:15:34;;;;;;;14.27;5.65;;;;;;;17.80;62.41;100758.09;5053408;28;20600;-76
2023/05/31 08:18:00;;;;;;;16.17;6.28;;;;;;;17.89;61.66;100755.53;5053148;28;20115;-76
2023/05/31 08:20:26;;;;;;;13.90;7.10;;;;;;;17.97;61.12;100744.69;5053002;28;20076;-77
2023/05/31 08:22:52;;;;;;;13.48;6.28;;;;;;;18.02;61.04;100751.28;5053396;28;20151;-76
2023/05/31 08:25:18;;;;;;;14.93;6.22;;;;;;;18.07;60.92;100741.00;5053173;28;20181;-76
2023/05/31 08:27:44;;;;;;;13.45;5.07;;;;;;;18.18;60.95;100754.72;5053341;28;20116;-76
2023/05/31 08:30:10;;;;;;;15.77;6.43;;;;;;;18.25;60.06;100741.41;5052393;28;20402;-76
2023/05/31 08:32:36;;;;;;;9.23;4.88;;;;;;;18.33;59.47;100734.41;5053064;28;20024;-77
2023/05/31 08:35:02;;;;;;;16.90;6.95;;;;;;;18.44;59.27;100735.13;5052579;28;20040;-76
2023/05/31 08:37:27;;;;;;;11.82;5.05;;;;;;;18.49;59.67;100743.31;5051533;28;20056;-76
2023/05/31 08:39:52;;;;;;;12.30;6.47;;;;;;;18.54;59.92;100740.50;5052194;28;20037;-76
2023/05/31 08:42:25;;;;;;;16.10;5.33;;;;;;;18.63;59.83;100734.34;5053095;28;20254;-77
2023/05/31 08:44:51;;;;;;;14.55;5.25;;;;;;;18.72;58.79;100729.78;5053453;28;20036;-76
2023/05/31 08:47:28;;;;;;;12.30;6.00;;;;;;;18.82;58.65;100728.00;5052849;28;20509;-76
2023/05/31 08:49:55;;;;;;;11.80;5.32;;;;;;;18.97;58.35;100724.22;5052586;28;20501;-77
2023/05/31 08:52:21;;;;;;;11.85;5.60;;;;;;;19.01;58.65;100728.84;5052968;28;20103;-76
2023/05/31 08:54:48;;;;;;;15.13;5.68;;;;;;;19.11;57.22;100729.81;5051946;28;20523;-77
2023/05/31 08:57:14;;;;;;;10.85;4.40;;;;;;;19.22;56.70;100725.78;5052865;28;20495;-77
2023/05/31 08:59:40;;;;;;;20.00;6.72;;;;;;;19.33;56.58;100731.16;5050893;28;20032;-76
2023/05/31 09:02:08;;;;;;;17.33;6.10;;;;;;;19.40;56.40;100728.84;5053012;28;20399;-76
2023/05/31 09:04:34;;;;;;;12.60;5.03;;;;;;;19.47;55.73;100723.75;5052869;28;20056;-76
2023/05/31 09:07:00;;;;;;;8.30;4.20;;;;;;;19.63;55.96;100726.22;5052891;28;20083;-76
2023/05/31 09:09:25;;;;;;;13.40;5.45;;;;;;;19.77;55.01;100723.50;5052053;28;20036;-76
2023/05/31 09:11:51;;;;;;;16.75;6.05;;;;;;;19.84;54.41;100717.56;5052573;28;20041;-76
2023/05/31 09:14:16;;;;;;;10.15;4.38;;;;;;;19.92;54.31;100714.09;5052367;28;20033;-77
2023/05/31 09:16:41;;;;;;;11.87;4.40;;;;;;;20.01;53.43;100716.19;5052695;28;20036;-77
2023/05/31 09:19:06;;;;;;;19.52;4.93;;;;;;;20.09;52.75;100723.78;5051926;28;20540;-77
2023/05/31 09:21:39;;;;;;;9.93;5.10;;;;;;;20.22;53.29;100711.06;5052842;28;20052;-77
2023/05/31 09:24:05;;;;;;;11.50;4.47;;;;;;;20.33;52.58;100717.22;5052641;28;20799;-77
2023/05/31 09:26:32;;;;;;;9.90;4.18;;;;;;;20.44;51.15;100711.50;5052621;28;20036;-77
2023/05/31 09:28:58;;;;;;;10.05;3.20;;;;;;;20.57;50.40;100709.81;5052166;28;20040;-76
2023/05/31 09:31:23;;;;;;;14.13;4.15;;;;;;;20.69;50.50;100700.97;5052237;28;20029;-77
2023/05/31 09:33:51;;;;;;;16.00;4.88;;;;;;;20.80;50.96;100696.03;5052822;28;20116;-77
2023/05/31 09:36:27;;;;;;;9.70;3.53;;;;;;;20.86;48.10;100692.84;5052683;28;20082;-76
2023/05/31 09:39:04;;;;;;;7.60;3.40;;;;;;;20.98;49.25;100694.25;5051670;28;20059;-77
2023/05/31 09:41:32;;;;;;;11.88;3.90;;;;;;;21.11;48.09;100695.34;5052508;28;20446;-77
2023/05/31 09:43:57;;;;;;;9.02;4.03;;;;;;;21.24;47.77;100688.09;5052692;28;20124;-77
2023/05/31 09:46:24;;;;;;;8.95;3.80;;;;;;;21.33;46.88;100680.66;5052372;28;20163;-77
2023/05/31 09:49:19;;;;;;;11.18;3.45;;;;;;;21.33;48.18;100691.75;5051863;28;20044;-77
2023/05/31 09:51:53;;;;;;;9.85;3.85;;;;;;;21.34;46.05;100685.06;5051628;28;20513;-77
2023/05/31 09:54:22;;;;;;;6.63;2.72;;;;;;;21.46;46.38;100684.50;5052219;28;20036;-77
2023/05/31 09:56:48;;;;;;;14.38;3.08;;;;;;;21.55;44.42;100673.47;5052727;28;20033;-77
2023/05/31 09:59:15;;;;;;;7.28;2.78;;;;;;;21.70;44.52;100677.75;5051767;28;20032;-77
2023/05/31 10:01:41;;;;;;;8.50;3.13;;;;;;;21.84;44.33;100676.91;5052536;28;20063;-77
2023/05/31 10:04:06;;;;;;;7.97;3.10;;;;;;;21.93;45.57;100680.50;5052074;28;20033;-77
2023/05/31 10:06:34;;;;;;;26.65;3.75;;;;;;;21.95;44.14;100674.63;5056037;28;20035;-76
2023/05/31 10:09:02;;;;;;;7.47;2.67;;;;;;;22.02;43.29;100660.31;5055428;28;20036;-76
2023/05/31 10:11:34;;;;;;;7.25;3.10;;;;;;;22.11;43.34;100668.66;5055830;28;20027;-77
2023/05/31 10:14:02;;;;;;;7.25;2.08;;;;;;;22.13;40.92;100660.84;5055846;28;20082;-77
2023/05/31 10:16:36;;;;;;;4.70;1.75;;;;;;;22.18;41.83;100651.53;5055705;28;20036;-77
2023/05/31 10:19:06;;;;;;;8.73;2.60;;;;;;;22.32;42.89;100654.16;5055269;28;20029;-77
2023/05/31 10:21:39;;;;;;;7.85;2.70;;;;;;;22.34;39.39;100658.25;5055631;28;20510;-76
2023/05/31 10:24:14;;;;;;;9.30;3.60;;;;;;;22.41;41.19;100643.91;5055700;28;20032;-76
2023/05/31 10:27:13;;;;;;;7.43;2.40;;;;;;;22.43;39.04;100641.63;5055398;28;20039;-77
2023/05/31 10:29:43;;;;;;;6.63;2.28;;;;;;;22.51;39.33;100646.38;5049943;28;20457;-77
2023/05/31 10:32:16;;;;;;;4.30;1.80;;;;;;;22.60;39.07;100646.34;5055238;28;20033;-77
2023/05/31 10:34:41;;;;;;;4.88;2.17;;;;;;;22.70;38.70;100644.44;5055354;28;20453;-76
2023/05/31 10:37:06;;;;;;;8.70;2.60;;;;;;;22.76;39.29;100639.53;5055169;28;20032;-77
2023/05/31 10:39:44;;;;;;;7.72;2.53;;;;;;;22.84;38.93;100633.16;5054951;28;20470;-76
2023/05/31 10:42:36;;;;;;;7.18;2.72;;;;;;;22.92;39.03;100629.56;5055119;28;20406;-76
2023/05/31 10:45:10;;;;;;;4.93;2.53;;;;;;;22.98;37.77;100625.44;5054781;28;20047;-77
2023/05/31 10:47:42;;;;;;;7.45;2.15;;;;;;;23.02;37.25;100627.59;5055306;28;20037;-78
2023/05/31 10:50:07;;;;;;;6.72;2.03;;;;;;;23.03;37.61;100621.69;5054014;28;20036;-77
2023/05/31 10:52:32;;;;;;;6.35;2.40;;;;;;;23.12;36.73;100620.84;5054699;28;20029;-77
2023/05/31 10:55:17;;;;;;;10.47;2.90;;;;;;;23.25;37.43;100624.59;5055266;28;20033;-77
2023/05/31 10:57:44;;;;;;;8.15;1.88;;;;;;;23.28;36.98;100613.63;5055064;28;20539;-77
2023/05/31 11:00:13;;;;;;;11.85;2.25;;;;;;;23.40;37.19;100610.16;5054338;28;20033;-77
2023/05/31 11:02:50;;;;;;;3.88;2.17;;;;;;;23.57;38.39;100619.63;5054734;28;20698;-77
2023/05/31 11:05:24;;;;;;;6.50;2.15;;;;;;;23.64;37.45;100622.69;5054433;28;20086;-77
2023/05/31 11:07:51;;;;;;;7.80;2.50;;;;;;;23.59;36.67;100620.13;5054519;28;20082;-77
2023/05/31 11:10:32;;;;;;;6.65;2.50;;;;;;;23.50;36.70;100609.00;5054039;28;20036;-77
2023/05/31 11:13:03;;;;;;;19.05;2.70;;;;;;;23.58;36.63;100609.28;5054582;28;20040;-78